sensor_id;sensor_type;location;lat;lon;timestamp;pressure;altitude;pressure_sealevel;temperature;humidity
8641;BME280;4358;42.100;25.222;2024-01-27T00:02:26;100667.00;;;3.78;100.00
8641;BME280;4358;42.100;25.222;2024-01-27T00:04:55;100660.88;;;3.77;100.00
8641;BME280;4358;42.100;25.222;2024-01-27T00:07:21;100658.56;;;3.67;100.00
8641;BME280;4358;42.100;25.222;2024-01-27T00:09:49;100666.50;;;3.65;100.00
8641;BME280;4358;42.100;25.222;2024-01-27T00:12:15;100664.94;;;3.57;100.00
8641;BME280;4358;42.100;25.222;2024-01-27T00:14:42;100669.31;;;3.58;100.00
8641;BME280;4358;42.100;25.222;2024-01-27T00:17:10;100665.88;;;3.56;100.00
8641;BME280;4358;42.100;25.222;2024-01-27T00:19:36;100674.31;;;3.67;100.00
8641;BME280;4358;42.100;25.222;2024-01-27T00:22:07;100681.38;;;3.65;100.00
8641;BME280;4358;42.100;25.222;2024-01-27T00:24:33;100678.16;;;3.54;100.00
8641;BME280;4358;42.100;25.222;2024-01-27T00:27:00;100678.81;;;3.62;100.00
8641;BME280;4358;42.100;25.222;2024-01-27T00:29:27;100675.88;;;3.74;100.00
8641;BME280;4358;42.100;25.222;2024-01-27T00:31:54;100683.63;;;3.78;100.00
8641;BME280;4358;42.100;25.222;2024-01-27T00:34:21;100676.72;;;3.74;100.00
8641;BME280;4358;42.100;25.222;2024-01-27T00:36:48;100679.50;;;3.70;100.00
8641;BME280;4358;42.100;25.222;2024-01-27T00:39:17;100673.09;;;3.80;100.00
8641;BME280;4358;42.100;25.222;2024-01-27T00:41:44;100668.56;;;3.85;100.00
8641;BME280;4358;42.100;25.222;2024-01-27T00:44:11;100667.56;;;3.89;100.00
8641;BME280;4358;42.100;25.222;2024-01-27T00:46:38;100678.00;;;3.92;100.00
8641;BME280;4358;42.100;25.222;2024-01-27T00:49:04;100651.13;;;3.82;100.00
8641;BME280;4358;42.100;25.222;2024-01-27T00:51:32;100669.13;;;3.96;100.00
8641;BME280;4358;42.100;25.222;2024-01-27T00:53:58;100665.63;;;3.97;100.00
8641;BME280;4358;42.100;25.222;2024-01-27T00:56:26;100664.81;;;3.94;100.00
8641;BME280;4358;42.100;25.222;2024-01-27T00:58:53;100661.53;;;3.87;100.00
8641;BME280;4358;42.100;25.222;2024-01-27T01:01:20;100654.72;;;3.80;100.00
8641;BME280;4358;42.100;25.222;2024-01-27T01:03:47;100654.72;;;3.80;100.00
8641;BME280;4358;42.100;25.222;2024-01-27T01:06:13;100648.84;;;3.70;100.00
8641;BME280;4358;42.100;25.222;2024-01-27T01:08:39;100645.41;;;3.67;100.00
8641;BME280;4358;42.100;25.222;2024-01-27T01:11:06;100641.25;;;3.60;100.00
8641;BME280;4358;42.100;25.222;2024-01-27T01:13:34;100646.75;;;3.51;100.00
8641;BME280;4358;42.100;25.222;2024-01-27T01:16:01;100637.16;;;3.50;100.00
8641;BME280;4358;42.100;25.222;2024-01-27T01:18:28;100637.03;;;3.20;100.00
8641;BME280;4358;42.100;25.222;2024-01-27T01:20:55;100631.38;;;3.03;100.00
8641;BME280;4358;42.100;25.222;2024-01-27T01:23:22;100619.03;;;3.07;100.00
8641;BME280;4358;42.100;25.222;2024-01-27T01:25:49;100620.41;;;3.21;100.00
8641;BME280;4358;42.100;25.222;2024-01-27T01:28:16;100615.66;;;3.35;100.00
8641;BME280;4358;42.100;25.222;2024-01-27T01:30:44;100611.06;;;3.44;100.00
8641;BME280;4358;42.100;25.222;2024-01-27T01:33:11;100610.97;;;3.47;100.00
8641;BME280;4358;42.100;25.222;2024-01-27T01:35:38;100610.97;;;3.47;100.00
8641;BME280;4358;42.100;25.222;2024-01-27T01:38:05;100607.63;;;3.41;100.00
8641;BME280;4358;42.100;25.222;2024-01-27T01:40:31;100606.72;;;3.42;100.00
8641;BME280;4358;42.100;25.222;2024-01-27T01:42:58;100605.59;;;3.51;100.00
8641;BME280;4358;42.100;25.222;2024-01-27T01:45:25;100600.34;;;3.51;100.00
8641;BME280;4358;42.100;25.222;2024-01-27T01:47:53;100599.59;;;3.48;100.00
8641;BME280;4358;42.100;25.222;2024-01-27T01:50:20;100603.84;;;3.52;100.00
8641;BME280;4358;42.100;25.222;2024-01-27T01:52:47;100603.97;;;3.47;100.00
8641;BME280;4358;42.100;25.222;2024-01-27T01:55:15;100603.09;;;3.47;100.00
8641;BME280;4358;42.100;25.222;2024-01-27T01:57:42;100607.00;;;3.32;100.00
8641;BME280;4358;42.100;25.222;2024-01-27T02:00:11;100615.19;;;3.20;100.00
8641;BME280;4358;42.100;25.222;2024-01-27T02:02:38;100609.41;;;3.07;100.00
8641;BME280;4358;42.100;25.222;2024-01-27T02:05:06;100605.88;;;3.08;100.00
8641;BME280;4358;42.100;25.222;2024-01-27T02:07:35;100598.63;;;3.18;100.00
8641;BME280;4358;42.100;25.222;2024-01-27T02:10:02;100588.03;;;3.22;100.00
8641;BME280;4358;42.100;25.222;2024-01-27T02:12:29;100586.91;;;3.31;100.00
8641;BME280;4358;42.100;25.222;2024-01-27T02:14:55;100592.00;;;3.37;100.00
8641;BME280;4358;42.100;25.222;2024-01-27T02:17:22;100590.16;;;3.40;100.00
8641;BME280;4358;42.100;25.222;2024-01-27T02:19:49;100585.13;;;3.33;100.00
8641;BME280;4358;42.100;25.222;2024-01-27T02:22:17;100575.22;;;3.42;100.00
8641;BME280;4358;42.100;25.222;2024-01-27T02:24:45;100573.50;;;3.41;100.00
8641;BME280;4358;42.100;25.222;2024-01-27T02:27:12;100585.63;;;3.46;100.00
8641;BME280;4358;42.100;25.222;2024-01-27T02:29:39;100579.44;;;3.50;100.00
8641;BME280;4358;42.100;25.222;2024-01-27T02:32:06;100586.41;;;3.51;100.00
8641;BME280;4358;42.100;25.222;2024-01-27T02:34:33;100583.94;;;3.45;100.00
8641;BME280;4358;42.100;25.222;2024-01-27T02:36:59;100589.09;;;3.48;100.00
8641;BME280;4358;42.100;25.222;2024-01-27T02:39:26;100606.31;;;3.58;100.00
8641;BME280;4358;42.100;25.222;2024-01-27T02:41:54;100605.44;;;3.57;100.00
8641;BME280;4358;42.100;25.222;2024-01-27T02:44:21;100609.84;;;3.24;100.00
8641;BME280;4358;42.100;25.222;2024-01-27T02:46:48;100617.28;;;3.07;100.00
8641;BME280;4358;42.100;25.222;2024-01-27T02:49:15;100625.53;;;2.92;100.00
8641;BME280;4358;42.100;25.222;2024-01-27T02:51:42;100629.41;;;2.76;100.00
8641;BME280;4358;42.100;25.222;2024-01-27T02:54:09;100618.84;;;2.79;100.00
8641;BME280;4358;42.100;25.222;2024-01-27T02:56:36;100607.91;;;2.97;100.00
8641;BME280;4358;42.100;25.222;2024-01-27T02:59:04;100612.84;;;3.09;100.00
8641;BME280;4358;42.100;25.222;2024-01-27T03:01:31;100603.91;;;3.16;100.00
8641;BME280;4358;42.100;25.222;2024-01-27T03:03:57;100598.63;;;3.18;100.00
8641;BME280;4358;42.100;25.222;2024-01-27T03:06:24;100601.84;;;3.29;100.00
8641;BME280;4358;42.100;25.222;2024-01-27T03:08:51;100594.78;;;3.31;100.00
8641;BME280;4358;42.100;25.222;2024-01-27T03:11:18;100596.53;;;3.30;100.00
8641;BME280;4358;42.100;25.222;2024-01-27T03:13:44;100588.91;;;3.21;100.00
8641;BME280;4358;42.100;25.222;2024-01-27T03:16:12;100585.41;;;3.22;100.00
8641;BME280;4358;42.100;25.222;2024-01-27T03:18:40;100590.53;;;3.27;100.00
8641;BME280;4358;42.100;25.222;2024-01-27T03:21:06;100581.16;;;3.18;100.00
8641;BME280;4358;42.100;25.222;2024-01-27T03:23:34;100576.66;;;3.22;100.00
8641;BME280;4358;42.100;25.222;2024-01-27T03:26:02;100569.53;;;3.27;100.00
8641;BME280;4358;42.100;25.222;2024-01-27T03:28:28;100568.81;;;3.22;100.00
8641;BME280;4358;42.100;25.222;2024-01-27T03:30:55;100572.19;;;3.25;100.00
8641;BME280;4358;42.100;25.222;2024-01-27T03:33:23;100574.75;;;3.28;100.00
8641;BME280;4358;42.100;25.222;2024-01-27T03:35:50;100570.31;;;3.30;100.00
8641;BME280;4358;42.100;25.222;2024-01-27T03:38:17;100563.38;;;3.29;100.00
8641;BME280;4358;42.100;25.222;2024-01-27T03:40:44;100565.16;;;3.27;100.00
8641;BME280;4358;42.100;25.222;2024-01-27T03:43:10;100549.50;;;3.24;100.00
8641;BME280;4358;42.100;25.222;2024-01-27T03:45:37;100545.31;;;3.17;100.00
8641;BME280;4358;42.100;25.222;2024-01-27T03:48:05;100549.81;;;3.12;100.00
8641;BME280;4358;42.100;25.222;2024-01-27T03:50:33;100562.97;;;3.11;100.00
8641;BME280;4358;42.100;25.222;2024-01-27T03:53:00;100560.13;;;2.86;100.00
8641;BME280;4358;42.100;25.222;2024-01-27T03:55:26;100557.56;;;2.83;100.00
8641;BME280;4358;42.100;25.222;2024-01-27T03:57:53;100558.50;;;2.80;100.00
8641;BME280;4358;42.100;25.222;2024-01-27T04:00:20;100572.28;;;2.88;100.00
8641;BME280;4358;42.100;25.222;2024-01-27T04:02:47;100574.81;;;2.93;100.00
8641;BME280;4358;42.100;25.222;2024-01-27T04:05:14;100563.34;;;2.97;100.00
8641;BME280;4358;42.100;25.222;2024-01-27T04:07:42;100552.69;;;3.03;100.00
8641;BME280;4358;42.100;25.222;2024-01-27T04:10:09;100562.97;;;3.11;100.00
8641;BME280;4358;42.100;25.222;2024-01-27T04:12:36;100556.00;;;3.10;100.00
8641;BME280;4358;42.100;25.222;2024-01-27T04:15:03;100559.56;;;3.07;100.00
8641;BME280;4358;42.100;25.222;2024-01-27T04:17:30;100544.72;;;3.08;100.00
8641;BME280;4358;42.100;25.222;2024-01-27T04:19:57;100536.72;;;3.12;100.00
8641;BME280;4358;42.100;25.222;2024-01-27T04:22:23;100531.50;;;3.11;100.00
8641;BME280;4358;42.100;25.222;2024-01-27T04:24:51;100534.09;;;3.12;100.00
8641;BME280;4358;42.100;25.222;2024-01-27T04:27:18;100546.31;;;3.13;100.00
8641;BME280;4358;42.100;25.222;2024-01-27T04:29:45;100539.50;;;3.06;100.00
8641;BME280;4358;42.100;25.222;2024-01-27T04:32:12;100532.47;;;3.08;100.00
8641;BME280;4358;42.100;25.222;2024-01-27T04:34:39;100527.97;;;3.12;100.00
8641;BME280;4358;42.100;25.222;2024-01-27T04:37:06;100536.72;;;3.12;100.00
8641;BME280;4358;42.100;25.222;2024-01-27T04:39:33;100531.47;;;3.12;100.00
8641;BME280;4358;42.100;25.222;2024-01-27T04:42:01;100529.63;;;3.16;100.00
8641;BME280;4358;42.100;25.222;2024-01-27T04:44:28;100526.28;;;3.09;100.00
8641;BME280;4358;42.100;25.222;2024-01-27T04:46:55;100527.28;;;3.05;100.00
8641;BME280;4358;42.100;25.222;2024-01-27T04:49:21;100525.63;;;3.01;100.00
8641;BME280;4358;42.100;25.222;2024-01-27T04:51:48;100523.03;;;3.01;100.00
8641;BME280;4358;42.100;25.222;2024-01-27T04:54:15;100522.19;;;2.99;100.00
8641;BME280;4358;42.100;25.222;2024-01-27T04:56:42;100521.25;;;3.02;100.00
8641;BME280;4358;42.100;25.222;2024-01-27T04:59:10;100515.88;;;3.06;100.00
8641;BME280;4358;42.100;25.222;2024-01-27T05:01:37;100510.75;;;3.03;100.00
8641;BME280;4358;42.100;25.222;2024-01-27T05:04:03;100518.41;;;3.09;100.00
8641;BME280;4358;42.100;25.222;2024-01-27T05:06:30;100503.63;;;3.07;100.00
8641;BME280;4358;42.100;25.222;2024-01-27T05:08:57;100502.06;;;2.99;100.00
8641;BME280;4358;42.100;25.222;2024-01-27T05:11:29;100511.69;;;2.99;100.00
8641;BME280;4358;42.100;25.222;2024-01-27T05:13:56;100505.72;;;2.94;100.00
8641;BME280;4358;42.100;25.222;2024-01-27T05:16:24;100503.34;;;2.85;100.00
8641;BME280;4358;42.100;25.222;2024-01-27T05:18:51;100505.22;;;2.80;100.00
8641;BME280;4358;42.100;25.222;2024-01-27T05:21:18;100490.53;;;2.73;100.00
8641;BME280;4358;42.100;25.222;2024-01-27T05:23:44;100492.06;;;2.47;100.00
8641;BME280;4358;42.100;25.222;2024-01-27T05:26:11;100490.78;;;2.28;100.00
8641;BME280;4358;42.100;25.222;2024-01-27T05:28:39;100489.00;;;2.30;100.00
8641;BME280;4358;42.100;25.222;2024-01-27T05:31:06;100495.75;;;2.40;100.00
8641;BME280;4358;42.100;25.222;2024-01-27T05:33:34;100493.94;;;2.42;100.00
8641;BME280;4358;42.100;25.222;2024-01-27T05:36:01;100492.28;;;2.38;100.00
8641;BME280;4358;42.100;25.222;2024-01-27T05:38:28;100492.94;;;2.46;100.00
8641;BME280;4358;42.100;25.222;2024-01-27T05:40:56;100491.88;;;2.55;100.00
8641;BME280;4358;42.100;25.222;2024-01-27T05:43:23;100497.78;;;2.63;100.00
8641;BME280;4358;42.100;25.222;2024-01-27T05:45:49;100498.66;;;2.64;100.00
8641;BME280;4358;42.100;25.222;2024-01-27T05:48:16;100498.66;;;2.64;100.00
8641;BME280;4358;42.100;25.222;2024-01-27T05:50:54;100496.91;;;2.63;100.00
8641;BME280;4358;42.100;25.222;2024-01-27T05:53:22;100493.44;;;2.62;100.00
8641;BME280;4358;42.100;25.222;2024-01-27T05:55:49;100496.84;;;2.66;100.00
8641;BME280;4358;42.100;25.222;2024-01-27T05:58:15;100503.75;;;2.70;100.00
8641;BME280;4358;42.100;25.222;2024-01-27T06:00:42;100510.66;;;2.72;100.00
8641;BME280;4358;42.100;25.222;2024-01-27T06:03:09;100507.19;;;2.72;100.00
8641;BME280;4358;42.100;25.222;2024-01-27T06:05:36;100506.94;;;2.81;100.00
8641;BME280;4358;42.100;25.222;2024-01-27T06:08:05;100511.09;;;2.89;100.00
8641;BME280;4358;42.100;25.222;2024-01-27T06:10:32;100508.16;;;2.68;100.00
8641;BME280;4358;42.100;25.222;2024-01-27T06:12:59;100513.22;;;2.75;100.00
8641;BME280;4358;42.100;25.222;2024-01-27T06:15:26;100517.44;;;2.81;100.00
8641;BME280;4358;42.100;25.222;2024-01-27T06:17:52;100527.78;;;2.87;100.00
8641;BME280;4358;42.100;25.222;2024-01-27T06:20:19;100525.22;;;2.84;100.00
8641;BME280;4358;42.100;25.222;2024-01-27T06:22:46;100527.69;;;2.90;100.00
8641;BME280;4358;42.100;25.222;2024-01-27T06:25:14;100537.13;;;2.97;100.00
8641;BME280;4358;42.100;25.222;2024-01-27T06:27:42;100533.47;;;3.03;100.00
8641;BME280;4358;42.100;25.222;2024-01-27T06:30:09;100532.53;;;3.05;100.00
8641;BME280;4358;42.100;25.222;2024-01-27T06:32:36;100537.75;;;3.05;100.00
8641;BME280;4358;42.100;25.222;2024-01-27T06:35:03;100492.97;;;2.80;100.00
8641;BME280;4358;42.100;25.222;2024-01-27T06:37:30;100542.13;;;3.06;100.00
8641;BME280;4358;42.100;25.222;2024-01-27T06:39:57;100552.31;;;3.17;100.00
8641;BME280;4358;42.100;25.222;2024-01-27T06:42:25;100546.81;;;3.26;100.00
8641;BME280;4358;42.100;25.222;2024-01-27T06:44:52;100547.38;;;3.38;100.00
8641;BME280;4358;42.100;25.222;2024-01-27T06:47:18;100551.75;;;3.38;100.00
8641;BME280;4358;42.100;25.222;2024-01-27T06:49:45;100544.63;;;3.43;100.00
8641;BME280;4358;42.100;25.222;2024-01-27T06:52:12;100543.66;;;3.46;100.00
8641;BME280;4358;42.100;25.222;2024-01-27T06:54:39;100543.41;;;3.55;100.00
8641;BME280;4358;42.100;25.222;2024-01-27T06:57:17;100539.22;;;3.48;100.00
8641;BME280;4358;42.100;25.222;2024-01-27T06:59:46;100530.59;;;3.44;100.00
8641;BME280;4358;42.100;25.222;2024-01-27T07:02:13;100545.38;;;3.47;100.00
8641;BME280;4358;42.100;25.222;2024-01-27T07:04:40;100535.75;;;3.47;100.00
8641;BME280;4358;42.100;25.222;2024-01-27T07:07:07;100540.06;;;3.50;100.00
8641;BME280;4358;42.100;25.222;2024-01-27T07:09:33;100541.47;;;3.61;100.00
8641;BME280;4358;42.100;25.222;2024-01-27T07:12:00;100534.38;;;3.65;100.00
8641;BME280;4358;42.100;25.222;2024-01-27T07:14:27;100537.44;;;3.79;100.00
8641;BME280;4358;42.100;25.222;2024-01-27T07:16:55;100539.00;;;3.86;100.00
8641;BME280;4358;42.100;25.222;2024-01-27T07:19:22;100537.03;;;3.93;100.00
8641;BME280;4358;42.100;25.222;2024-01-27T07:21:49;100536.72;;;4.03;100.00
8641;BME280;4358;42.100;25.222;2024-01-27T07:24:15;100537.53;;;4.05;100.00
8641;BME280;4358;42.100;25.222;2024-01-27T07:26:42;100528.44;;;4.17;100.00
8641;BME280;4358;42.100;25.222;2024-01-27T07:29:09;100520.94;;;4.03;100.00
8641;BME280;4358;42.100;25.222;2024-01-27T07:31:36;100526.22;;;4.03;100.00
8641;BME280;4358;42.100;25.222;2024-01-27T07:34:04;100528.22;;;3.95;100.00
8641;BME280;4358;42.100;25.222;2024-01-27T07:36:31;100535.66;;;3.81;100.00
8641;BME280;4358;42.100;25.222;2024-01-27T07:38:58;100533.47;;;3.66;100.00
8641;BME280;4358;42.100;25.222;2024-01-27T07:41:25;100528.16;;;3.67;100.00
8641;BME280;4358;42.100;25.222;2024-01-27T07:43:54;100521.22;;;3.66;100.00
8641;BME280;4358;42.100;25.222;2024-01-27T07:46:21;100511.47;;;3.70;100.00
8641;BME280;4358;42.100;25.222;2024-01-27T07:48:48;100522.59;;;3.49;100.00
8641;BME280;4358;42.100;25.222;2024-01-27T07:51:16;100527.00;;;3.47;100.00
8641;BME280;4358;42.100;25.222;2024-01-27T07:53:43;100509.44;;;3.50;100.00
8641;BME280;4358;42.100;25.222;2024-01-27T07:56:10;100519.69;;;3.58;100.00
8641;BME280;4358;42.100;25.222;2024-01-27T07:58:37;100509.84;;;3.66;100.00
8641;BME280;4358;42.100;25.222;2024-01-27T08:01:03;100494.00;;;3.69;100.00
8641;BME280;4358;42.100;25.222;2024-01-27T08:03:31;100492.09;;;3.74;100.00
8641;BME280;4358;42.100;25.222;2024-01-27T08:05:57;100490.28;;;3.76;100.00
8641;BME280;4358;42.100;25.222;2024-01-27T08:08:26;100490.78;;;3.89;100.00
8641;BME280;4358;42.100;25.222;2024-01-27T08:10:52;100480.38;;;3.86;100.00
8641;BME280;4358;42.100;25.222;2024-01-27T08:13:19;100476.59;;;3.94;100.00
8641;BME280;4358;42.100;25.222;2024-01-27T08:15:46;100478.47;;;3.91;100.00
8641;BME280;4358;42.100;25.222;2024-01-27T08:18:13;100463.38;;;3.97;100.00
8641;BME280;4358;42.100;25.222;2024-01-27T08:20:39;100452.41;;;4.12;100.00
8641;BME280;4358;42.100;25.222;2024-01-27T08:23:06;100459.97;;;4.21;100.00
8641;BME280;4358;42.100;25.222;2024-01-27T08:25:35;100452.91;;;4.23;100.00
8641;BME280;4358;42.100;25.222;2024-01-27T08:28:01;100444.06;;;4.26;100.00
8641;BME280;4358;42.100;25.222;2024-01-27T08:30:28;100444.56;;;4.37;100.00
8641;BME280;4358;42.100;25.222;2024-01-27T08:32:55;100444.34;;;4.45;100.00
8641;BME280;4358;42.100;25.222;2024-01-27T08:35:22;100427.22;;;4.58;100.00
8641;BME280;4358;42.100;25.222;2024-01-27T08:37:49;100423.16;;;4.74;100.00
8641;BME280;4358;42.100;25.222;2024-01-27T08:40:16;100421.06;;;4.84;100.00
8641;BME280;4358;42.100;25.222;2024-01-27T08:42:44;100423.09;;;5.00;100.00
8641;BME280;4358;42.100;25.222;2024-01-27T08:45:11;100425.97;;;5.18;100.00
8641;BME280;4358;42.100;25.222;2024-01-27T08:47:38;100417.81;;;5.24;100.00
8641;BME280;4358;42.100;25.222;2024-01-27T08:50:06;100415.22;;;5.47;100.00
8641;BME280;4358;42.100;25.222;2024-01-27T08:52:33;100415.44;;;5.64;100.00
8641;BME280;4358;42.100;25.222;2024-01-27T08:54:59;100418.25;;;5.81;100.00
8641;BME280;4358;42.100;25.222;2024-01-27T08:57:26;100426.56;;;5.94;100.00
8641;BME280;4358;42.100;25.222;2024-01-27T08:59:54;100436.69;;;6.05;100.00
8641;BME280;4358;42.100;25.222;2024-01-27T09:02:21;100445.13;;;6.13;100.00
8641;BME280;4358;42.100;25.222;2024-01-27T09:04:48;100452.13;;;6.14;100.00
8641;BME280;4358;42.100;25.222;2024-01-27T09:07:14;100452.13;;;6.14;100.00
8641;BME280;4358;42.100;25.222;2024-01-27T09:09:41;100458.97;;;6.18;100.00
8641;BME280;4358;42.100;25.222;2024-01-27T09:12:08;100454.28;;;6.26;100.00
8641;BME280;4358;42.100;25.222;2024-01-27T09:14:35;100462.19;;;6.26;100.00
8641;BME280;4358;42.100;25.222;2024-01-27T09:17:03;100463.22;;;6.22;100.00
8641;BME280;4358;42.100;25.222;2024-01-27T09:19:30;100476.28;;;6.25;100.00
8641;BME280;4358;42.100;25.222;2024-01-27T09:21:56;100470.88;;;6.28;100.00
8641;BME280;4358;42.100;25.222;2024-01-27T09:24:23;100477.50;;;6.38;100.00
8641;BME280;4358;42.100;25.222;2024-01-27T09:26:50;100472.47;;;6.32;100.00
8641;BME280;4358;42.100;25.222;2024-01-27T09:29:17;100474.91;;;6.36;100.00
8641;BME280;4358;42.100;25.222;2024-01-27T09:31:45;100470.84;;;6.50;100.00
8641;BME280;4358;42.100;25.222;2024-01-27T09:34:13;100463.97;;;6.67;100.00
8641;BME280;4358;42.100;25.222;2024-01-27T09:36:40;100462.59;;;6.79;100.00
8641;BME280;4358;42.100;25.222;2024-01-27T09:39:06;100470.09;;;6.88;100.00
8641;BME280;4358;42.100;25.222;2024-01-27T09:41:33;100471.38;;;6.79;100.00
8641;BME280;4358;42.100;25.222;2024-01-27T09:44:01;100470.06;;;6.90;100.00
8641;BME280;4358;42.100;25.222;2024-01-27T09:46:29;100464.63;;;6.93;100.00
8641;BME280;4358;42.100;25.222;2024-01-27T09:48:56;100453.81;;;6.99;100.00
8641;BME280;4358;42.100;25.222;2024-01-27T09:51:24;100453.56;;;7.05;100.00
8641;BME280;4358;42.100;25.222;2024-01-27T09:53:51;100450.47;;;6.95;100.00
8641;BME280;4358;42.100;25.222;2024-01-27T09:56:18;100454.34;;;6.87;100.00
8641;BME280;4358;42.100;25.222;2024-01-27T09:58:46;100447.06;;;6.92;100.00
8641;BME280;4358;42.100;25.222;2024-01-27T10:01:16;100461.75;;;7.17;100.00
8641;BME280;4358;42.100;25.222;2024-01-27T10:03:45;100435.78;;;7.66;100.00
8641;BME280;4358;42.100;25.222;2024-01-27T10:06:12;100426.50;;;7.95;100.00
8641;BME280;4358;42.100;25.222;2024-01-27T10:08:43;100422.59;;;8.21;100.00
8641;BME280;4358;42.100;25.222;2024-01-27T10:11:18;100400.47;;;8.40;100.00
8641;BME280;4358;42.100;25.222;2024-01-27T10:13:53;100414.66;;;8.57;100.00
8641;BME280;4358;42.100;25.222;2024-01-27T10:16:21;100405.94;;;8.72;100.00
8641;BME280;4358;42.100;25.222;2024-01-27T10:18:58;100404.44;;;8.83;100.00
8641;BME280;4358;42.100;25.222;2024-01-27T10:21:25;100400.94;;;9.00;100.00
8641;BME280;4358;42.100;25.222;2024-01-27T10:23:54;100384.97;;;9.17;100.00
8641;BME280;4358;42.100;25.222;2024-01-27T10:26:20;100381.44;;;9.34;100.00
8641;BME280;4358;42.100;25.222;2024-01-27T10:28:52;100379.38;;;9.39;100.00
8641;BME280;4358;42.100;25.222;2024-01-27T10:31:19;100371.97;;;9.46;100.00
8641;BME280;4358;42.100;25.222;2024-01-27T10:33:52;100382.81;;;9.57;100.00
8641;BME280;4358;42.100;25.222;2024-01-27T10:36:19;100416.59;;;9.69;100.00
8641;BME280;4358;42.100;25.222;2024-01-27T10:38:46;100399.75;;;9.86;100.00
8641;BME280;4358;42.100;25.222;2024-01-27T10:41:20;100372.28;;;10.02;100.00
8641;BME280;4358;42.100;25.222;2024-01-27T10:43:49;100397.03;;;10.18;100.00
8641;BME280;4358;42.100;25.222;2024-01-27T10:46:19;100357.16;;;10.20;100.00
8641;BME280;4358;42.100;25.222;2024-01-27T10:48:49;100367.88;;;10.33;100.00
8641;BME280;4358;42.100;25.222;2024-01-27T10:51:23;100379.00;;;10.39;100.00
8641;BME280;4358;42.100;25.222;2024-01-27T10:53:54;100381.41;;;10.58;100.00
8641;BME280;4358;42.100;25.222;2024-01-27T10:56:29;100385.44;;;10.79;100.00
8641;BME280;4358;42.100;25.222;2024-01-27T10:58:58;100391.16;;;10.87;100.00
8641;BME280;4358;42.100;25.222;2024-01-27T11:01:26;100387.00;;;10.97;100.00
8641;BME280;4358;42.100;25.222;2024-01-27T11:03:55;100362.53;;;11.07;100.00
8641;BME280;4358;42.100;25.222;2024-01-27T11:06:22;100367.53;;;11.25;100.00
8641;BME280;4358;42.100;25.222;2024-01-27T11:08:49;100350.00;;;11.23;100.00
8641;BME280;4358;42.100;25.222;2024-01-27T11:11:16;100348.66;;;11.01;100.00
8641;BME280;4358;42.100;25.222;2024-01-27T11:13:45;100369.91;;;10.87;100.00
8641;BME280;4358;42.100;25.222;2024-01-27T11:16:15;100368.66;;;10.79;100.00
8641;BME280;4358;42.100;25.222;2024-01-27T11:18:43;100344.09;;;10.75;100.00
8641;BME280;4358;42.100;25.222;2024-01-27T11:21:13;100361.75;;;10.76;100.00
8641;BME280;4358;42.100;25.222;2024-01-27T11:23:41;100355.09;;;10.69;100.00
8641;BME280;4358;42.100;25.222;2024-01-27T11:26:09;100357.16;;;10.64;100.00
8641;BME280;4358;42.100;25.222;2024-01-27T11:28:38;100384.47;;;10.66;100.00
8641;BME280;4358;42.100;25.222;2024-01-27T11:31:08;100410.59;;;10.58;100.00
8641;BME280;4358;42.100;25.222;2024-01-27T11:33:41;100367.91;;;10.47;100.00
8641;BME280;4358;42.100;25.222;2024-01-27T11:36:18;100378.28;;;10.51;100.00
8641;BME280;4358;42.100;25.222;2024-01-27T11:38:46;100371.56;;;10.60;100.00
8641;BME280;4358;42.100;25.222;2024-01-27T11:41:12;100369.69;;;10.62;100.00
8641;BME280;4358;42.100;25.222;2024-01-27T11:43:39;100397.75;;;10.66;100.00
8641;BME280;4358;42.100;25.222;2024-01-27T11:46:08;100359.66;;;10.67;100.00
8641;BME280;4358;42.100;25.222;2024-01-27T11:48:41;100351.56;;;10.69;100.00
8641;BME280;4358;42.100;25.222;2024-01-27T11:51:11;100372.94;;;10.81;100.00
8641;BME280;4358;42.100;25.222;2024-01-27T11:53:38;100418.94;;;10.82;100.00
8641;BME280;4358;42.100;25.222;2024-01-27T11:56:06;100377.09;;;10.85;100.00
8641;BME280;4358;42.100;25.222;2024-01-27T11:58:34;100382.91;;;10.92;100.00
8641;BME280;4358;42.100;25.222;2024-01-27T12:01:00;100382.50;;;10.84;100.00
8641;BME280;4358;42.100;25.222;2024-01-27T12:03:29;100384.41;;;10.82;100.00
8641;BME280;4358;42.100;25.222;2024-01-27T12:05:56;100410.03;;;10.83;100.00
8641;BME280;4358;42.100;25.222;2024-01-27T12:08:24;100428.34;;;10.87;100.00
8641;BME280;4358;42.100;25.222;2024-01-27T12:10:51;100410.09;;;10.67;100.00
8641;BME280;4358;42.100;25.222;2024-01-27T12:13:18;100427.38;;;10.58;100.00
8641;BME280;4358;42.100;25.222;2024-01-27T12:15:45;100427.44;;;10.43;100.00
8641;BME280;4358;42.100;25.222;2024-01-27T12:18:12;100454.09;;;10.26;100.00
8641;BME280;4358;42.100;25.222;2024-01-27T12:20:40;100459.78;;;10.02;100.00
8641;BME280;4358;42.100;25.222;2024-01-27T12:23:07;100453.81;;;9.83;100.00
8641;BME280;4358;42.100;25.222;2024-01-27T12:25:34;100451.81;;;9.71;100.00
8641;BME280;4358;42.100;25.222;2024-01-27T12:28:04;100447.28;;;9.57;100.00
8641;BME280;4358;42.100;25.222;2024-01-27T12:30:33;100464.00;;;9.58;100.00
8641;BME280;4358;42.100;25.222;2024-01-27T12:33:01;100462.16;;;9.60;100.00
8641;BME280;4358;42.100;25.222;2024-01-27T12:35:28;100472.06;;;9.56;100.00
8641;BME280;4358;42.100;25.222;2024-01-27T12:37:59;100467.94;;;9.51;100.00
8641;BME280;4358;42.100;25.222;2024-01-27T12:40:26;100492.13;;;9.45;100.00
8641;BME280;4358;42.100;25.222;2024-01-27T12:42:53;100479.03;;;9.42;100.00
8641;BME280;4358;42.100;25.222;2024-01-27T12:45:20;100473.88;;;9.39;100.00
8641;BME280;4358;42.100;25.222;2024-01-27T12:47:47;100484.66;;;9.35;100.00
8641;BME280;4358;42.100;25.222;2024-01-27T12:50:13;100517.44;;;9.33;100.00
8641;BME280;4358;42.100;25.222;2024-01-27T12:52:41;100510.44;;;9.32;100.00
8641;BME280;4358;42.100;25.222;2024-01-27T12:55:10;100507.56;;;9.37;100.00
8641;BME280;4358;42.100;25.222;2024-01-27T12:57:36;100520.03;;;9.34;100.00
8641;BME280;4358;42.100;25.222;2024-01-27T13:00:06;100521.03;;;9.32;100.00
8641;BME280;4358;42.100;25.222;2024-01-27T13:02:35;100521.19;;;9.29;100.00